Airfield :
LOGIN :

Register | Disclaimer

   EN    FR    IT 

 










Legend :    VFR   Marginal VFR   IFR   Intensive IFR   Very Intensive IFR
Visi :
Ceiling :
>= 8 km
>= 3000ft
5 to 8 km
1000 to 3000 ft
1500m to 5 km
500 to 1000 ft
800 to 1500m
200 to 500 ft
< 800m
< 200 ft
Symbols :   Thunderstorms  Fog  Heavy snow  Heavy precipitations  Wind > 20 kt
SIGMETs :     Misc.  Thunderstorms  Icing  Turbulence  Mountain Waves  Volcanic Ashes







- Airport Elevation : 628 ft
- IATA code : CMR
- Download approach charts


LFGA - Colmar-Houssen

CURRENT METAR :
  • 191200Z AUTO VRB03KT CAVOK 25/14 Q1024

EXPIRED METARs :
  • 191130Z AUTO 07004KT 020V130 CAVOK 25/15 Q1024
  • 191100Z AUTO 04004KT 360V080 9999 FEW044 24/14 Q1025
  • 191030Z AUTO 13004KT 050V220 9999 FEW043 24/15 Q1025
  • 191000Z AUTO 11005KT 060V150 9999 FEW039 24/14 Q1025
  • 190930Z AUTO 07004KT 030V140 CAVOK 23/14 Q1025

TAF N/A
No reported NOTAMs for that airfield.



MET'MAP, your aeronautical weather chart ! - Copyright ORBIFLY December 2007 - Disclaimer

ORBIFLY MET'MAP TEAM :

Programming & Development : Alexandra Zaïnal
Concept & Development : Baudouin d'Aumeries
Co-Development & Prog : Marc-Olivier Méhu
Technical & hardware support : Manuel Goepfert

Contact : metmap@orbifly.com




SOURCES & CREDITS :

   NOAA